Tropical Cyclones
[Index]
Main Index Home Page Stock Weather Photos Extreme Storms Discussion Storm News and Storm Chasing Reports Tropical Cyclones / Hurricanes / Typhoons Weather Data and Links Wild Fires / Bushfires Weather Observation Techniques Weather Picture Catalogue Tornado Pictures and Reports Stock Video Footage and DVDs for sale
Season 2013-2014 Tropical Cyclone EDILSON Track Map
Season 2013-2014 Summaries: [BoM-AU] [JTWC-AU] [JTWC-SIO] [JTWC-SPAC] [JTWC-SH]
<<- Previous TC | JTWC 2013-2014 Season | Next TC ->>

click for intensity scale information  Lat/long Grid: Show Hide

 Date Labels: Show Hide

Joint Typhoon Warning Centre Cyclone Data

Name: EDILSON

04 Feb 2014 06:00 UTC to 08 Feb 2014 18:00 UTC

    date/time    lat    long     hPa   cat  kts
2014-02-04 06   15.9    60.2    1007         20          
2014-02-04 12   16.0    59.6    1007         20          
2014-02-04 18   16.3    59.5    1004         25          
2014-02-05 00   16.7    59.6    1000         30          
2014-02-05 06   17.2    59.9     996         35          
2014-02-05 12   18.1    60.0     993    1    40          
2014-02-05 18   19.2    60.0     993    1    40          
2014-02-06 00   20.2    59.3     985    1    50          
2014-02-06 06   21.2    58.6     985    1    50          
2014-02-06 12   22.4    57.8     982    2    55          
2014-02-06 12   22.4    57.8     982    2    55          
2014-02-06 18   24.1    56.9     985    1    50          
2014-02-06 18   24.1    56.9     985    1    50          
2014-02-07 00   26.0    55.9     985    1    50          
2014-02-07 00   26.0    55.9     985    1    50          
2014-02-07 06   27.5    55.1     989    1    45          
2014-02-07 12   29.0    54.2     993    1    40          
2014-02-07 18   30.5    53.3     996         35          
2014-02-08 00   32.0    52.8    1000         30          
2014-02-08 06   33.6    52.5    1000         30          
2014-02-08 12   35.1    52.4    1000         30          
2014-02-08 18   36.6    52.1    1004         25          
Winds are 1-min average.

Tropical cyclone tracks developed by Michael Bath using data from the Joint Typhoon Warning Centre Best Tracks and Google Maps.


[Australian Severe Weather index] [Copyright Notice] [Email Contacts] [Search This Site] [Privacy Policy]
Document: tropical_cyclone_edilson.htm Updated: 28 June 2017